sensor_id;sensor_type;location;lat;lon;timestamp;P1;durP1;ratioP1;P2;durP2;ratioP2
36359;SDS011;22388;52.432;20.662;2023-05-01T00:00:41;17.02;;;6.20;;
36359;SDS011;22388;52.432;20.662;2023-05-01T00:04:05;15.18;;;6.15;;
36359;SDS011;22388;52.432;20.662;2023-05-01T00:07:30;13.80;;;5.88;;
36359;SDS011;22388;52.432;20.662;2023-05-01T00:10:55;15.18;;;5.70;;
36359;SDS011;22388;52.432;20.662;2023-05-01T00:14:19;12.70;;;6.03;;
36359;SDS011;22388;52.432;20.662;2023-05-01T00:17:43;18.60;;;6.30;;
36359;SDS011;22388;52.432;20.662;2023-05-01T00:21:08;16.70;;;5.82;;
36359;SDS011;22388;52.432;20.662;2023-05-01T00:24:32;15.25;;;5.93;;
36359;SDS011;22388;52.432;20.662;2023-05-01T00:27:56;18.48;;;6.07;;
36359;SDS011;22388;52.432;20.662;2023-05-01T00:31:22;15.60;;;5.78;;
36359;SDS011;22388;52.432;20.662;2023-05-01T00:34:46;13.05;;;5.43;;
36359;SDS011;22388;52.432;20.662;2023-05-01T00:38:11;17.73;;;6.15;;
36359;SDS011;22388;52.432;20.662;2023-05-01T00:41:35;11.88;;;4.85;;
36359;SDS011;22388;52.432;20.662;2023-05-01T00:45:00;14.73;;;5.93;;
36359;SDS011;22388;52.432;20.662;2023-05-01T00:48:24;14.98;;;5.60;;
36359;SDS011;22388;52.432;20.662;2023-05-01T00:51:48;13.48;;;5.45;;
36359;SDS011;22388;52.432;20.662;2023-05-01T00:55:14;14.85;;;5.90;;
36359;SDS011;22388;52.432;20.662;2023-05-01T00:58:38;11.77;;;5.18;;
36359;SDS011;22388;52.432;20.662;2023-05-01T01:02:03;14.43;;;5.63;;
36359;SDS011;22388;52.432;20.662;2023-05-01T01:05:28;16.00;;;6.10;;
36359;SDS011;22388;52.432;20.662;2023-05-01T01:12:41;14.93;;;6.20;;
36359;SDS011;22388;52.432;20.662;2023-05-01T01:16:31;15.07;;;5.75;;
36359;SDS011;22388;52.432;20.662;2023-05-01T01:28:36;17.17;;;5.85;;
36359;SDS011;22388;52.432;20.662;2023-05-01T01:35:34;14.52;;;5.28;;
36359;SDS011;22388;52.432;20.662;2023-05-01T01:39:28;13.32;;;5.20;;
36359;SDS011;22388;52.432;20.662;2023-05-01T01:43:12;12.88;;;5.20;;
36359;SDS011;22388;52.432;20.662;2023-05-01T01:46:44;13.27;;;5.38;;
36359;SDS011;22388;52.432;20.662;2023-05-01T01:50:10;12.63;;;5.13;;
36359;SDS011;22388;52.432;20.662;2023-05-01T01:53:39;12.10;;;5.28;;
36359;SDS011;22388;52.432;20.662;2023-05-01T01:57:06;14.25;;;5.97;;
36359;SDS011;22388;52.432;20.662;2023-05-01T02:00:30;17.10;;;5.93;;
36359;SDS011;22388;52.432;20.662;2023-05-01T02:03:55;17.90;;;5.95;;
36359;SDS011;22388;52.432;20.662;2023-05-01T02:07:21;12.15;;;5.45;;
36359;SDS011;22388;52.432;20.662;2023-05-01T02:10:45;12.82;;;5.05;;
36359;SDS011;22388;52.432;20.662;2023-05-01T02:14:12;15.52;;;5.80;;
36359;SDS011;22388;52.432;20.662;2023-05-01T02:17:37;9.60;;;4.43;;
36359;SDS011;22388;52.432;20.662;2023-05-01T02:21:02;13.30;;;5.07;;
36359;SDS011;22388;52.432;20.662;2023-05-01T02:24:27;11.15;;;4.88;;
36359;SDS011;22388;52.432;20.662;2023-05-01T02:27:56;12.13;;;5.10;;
36359;SDS011;22388;52.432;20.662;2023-05-01T02:31:23;11.75;;;4.93;;
36359;SDS011;22388;52.432;20.662;2023-05-01T02:34:47;10.40;;;4.60;;
36359;SDS011;22388;52.432;20.662;2023-05-01T02:38:15;11.13;;;5.32;;
36359;SDS011;22388;52.432;20.662;2023-05-01T02:41:39;11.35;;;5.15;;
36359;SDS011;22388;52.432;20.662;2023-05-01T02:45:05;13.38;;;4.75;;
36359;SDS011;22388;52.432;20.662;2023-05-01T02:48:30;15.05;;;4.57;;
36359;SDS011;22388;52.432;20.662;2023-05-01T02:51:54;8.20;;;4.15;;
36359;SDS011;22388;52.432;20.662;2023-05-01T02:55:19;10.80;;;4.20;;
36359;SDS011;22388;52.432;20.662;2023-05-01T02:58:43;8.98;;;3.88;;
36359;SDS011;22388;52.432;20.662;2023-05-01T03:02:07;12.70;;;5.25;;
36359;SDS011;22388;52.432;20.662;2023-05-01T03:05:31;11.20;;;4.07;;
36359;SDS011;22388;52.432;20.662;2023-05-01T03:08:56;10.85;;;4.60;;
36359;SDS011;22388;52.432;20.662;2023-05-01T03:12:20;9.48;;;3.58;;
36359;SDS011;22388;52.432;20.662;2023-05-01T03:15:44;12.75;;;3.80;;
36359;SDS011;22388;52.432;20.662;2023-05-01T03:19:08;13.38;;;4.70;;
36359;SDS011;22388;52.432;20.662;2023-05-01T03:22:33;14.70;;;4.30;;
36359;SDS011;22388;52.432;20.662;2023-05-01T03:25:58;9.25;;;4.15;;
36359;SDS011;22388;52.432;20.662;2023-05-01T03:29:22;10.48;;;4.32;;
36359;SDS011;22388;52.432;20.662;2023-05-01T03:32:46;14.98;;;5.10;;
36359;SDS011;22388;52.432;20.662;2023-05-01T03:36:10;10.25;;;3.92;;
36359;SDS011;22388;52.432;20.662;2023-05-01T03:39:34;10.27;;;4.63;;
36359;SDS011;22388;52.432;20.662;2023-05-01T03:42:58;12.23;;;4.80;;
36359;SDS011;22388;52.432;20.662;2023-05-01T03:46:22;12.07;;;4.38;;
36359;SDS011;22388;52.432;20.662;2023-05-01T03:49:47;14.63;;;4.78;;
36359;SDS011;22388;52.432;20.662;2023-05-01T03:53:11;12.63;;;4.57;;
36359;SDS011;22388;52.432;20.662;2023-05-01T03:56:36;10.00;;;5.07;;
36359;SDS011;22388;52.432;20.662;2023-05-01T04:00:01;16.00;;;4.55;;
36359;SDS011;22388;52.432;20.662;2023-05-01T04:03:26;11.50;;;4.72;;
36359;SDS011;22388;52.432;20.662;2023-05-01T04:06:51;13.07;;;5.18;;
36359;SDS011;22388;52.432;20.662;2023-05-01T04:10:15;12.45;;;5.18;;
36359;SDS011;22388;52.432;20.662;2023-05-01T04:13:39;14.10;;;5.63;;
36359;SDS011;22388;52.432;20.662;2023-05-01T04:17:03;13.75;;;5.75;;
36359;SDS011;22388;52.432;20.662;2023-05-01T04:20:28;18.95;;;7.95;;
36359;SDS011;22388;52.432;20.662;2023-05-01T04:23:52;17.02;;;6.45;;
36359;SDS011;22388;52.432;20.662;2023-05-01T04:27:17;16.83;;;6.40;;
36359;SDS011;22388;52.432;20.662;2023-05-01T04:30:41;20.30;;;7.47;;
36359;SDS011;22388;52.432;20.662;2023-05-01T04:34:05;17.60;;;7.35;;
36359;SDS011;22388;52.432;20.662;2023-05-01T04:37:30;13.27;;;6.95;;
36359;SDS011;22388;52.432;20.662;2023-05-01T04:40:54;16.05;;;7.30;;
36359;SDS011;22388;52.432;20.662;2023-05-01T04:44:18;15.52;;;7.00;;
36359;SDS011;22388;52.432;20.662;2023-05-01T04:47:42;16.80;;;7.15;;
36359;SDS011;22388;52.432;20.662;2023-05-01T04:58:14;15.38;;;6.60;;
36359;SDS011;22388;52.432;20.662;2023-05-01T05:01:40;15.75;;;6.82;;
36359;SDS011;22388;52.432;20.662;2023-05-01T05:05:04;15.68;;;6.78;;
36359;SDS011;22388;52.432;20.662;2023-05-01T05:08:28;15.20;;;7.00;;
36359;SDS011;22388;52.432;20.662;2023-05-01T05:11:52;20.13;;;6.75;;
36359;SDS011;22388;52.432;20.662;2023-05-01T05:15:16;15.55;;;6.38;;
36359;SDS011;22388;52.432;20.662;2023-05-01T05:18:40;14.15;;;5.90;;
36359;SDS011;22388;52.432;20.662;2023-05-01T05:22:04;13.13;;;5.90;;
36359;SDS011;22388;52.432;20.662;2023-05-01T05:25:29;14.55;;;5.65;;
36359;SDS011;22388;52.432;20.662;2023-05-01T05:28:53;14.18;;;5.50;;
36359;SDS011;22388;52.432;20.662;2023-05-01T05:32:17;15.95;;;5.32;;
36359;SDS011;22388;52.432;20.662;2023-05-01T05:35:41;12.43;;;5.00;;
36359;SDS011;22388;52.432;20.662;2023-05-01T05:39:05;9.32;;;4.30;;
36359;SDS011;22388;52.432;20.662;2023-05-01T05:42:30;11.68;;;3.97;;
36359;SDS011;22388;52.432;20.662;2023-05-01T05:45:58;12.65;;;4.38;;
36359;SDS011;22388;52.432;20.662;2023-05-01T05:49:22;12.63;;;4.40;;
36359;SDS011;22388;52.432;20.662;2023-05-01T05:52:46;11.80;;;4.43;;
36359;SDS011;22388;52.432;20.662;2023-05-01T05:56:10;13.13;;;4.30;;
36359;SDS011;22388;52.432;20.662;2023-05-01T05:59:34;13.82;;;4.47;;
36359;SDS011;22388;52.432;20.662;2023-05-01T06:02:58;10.50;;;4.13;;
36359;SDS011;22388;52.432;20.662;2023-05-01T06:06:22;10.32;;;4.03;;
36359;SDS011;22388;52.432;20.662;2023-05-01T06:09:47;11.30;;;3.85;;
36359;SDS011;22388;52.432;20.662;2023-05-01T06:13:11;10.98;;;4.32;;
36359;SDS011;22388;52.432;20.662;2023-05-01T06:16:36;9.65;;;4.43;;
36359;SDS011;22388;52.432;20.662;2023-05-01T06:20:01;8.75;;;3.60;;
36359;SDS011;22388;52.432;20.662;2023-05-01T06:23:25;9.48;;;3.38;;
36359;SDS011;22388;52.432;20.662;2023-05-01T06:26:49;9.27;;;3.45;;
36359;SDS011;22388;52.432;20.662;2023-05-01T06:30:14;8.30;;;3.50;;
36359;SDS011;22388;52.432;20.662;2023-05-01T06:33:38;9.38;;;3.40;;
36359;SDS011;22388;52.432;20.662;2023-05-01T06:37:02;11.60;;;3.53;;
36359;SDS011;22388;52.432;20.662;2023-05-01T06:40:27;9.07;;;3.20;;
36359;SDS011;22388;52.432;20.662;2023-05-01T06:43:51;9.57;;;3.65;;
36359;SDS011;22388;52.432;20.662;2023-05-01T06:47:15;6.82;;;2.70;;
36359;SDS011;22388;52.432;20.662;2023-05-01T06:50:39;11.20;;;3.38;;
36359;SDS011;22388;52.432;20.662;2023-05-01T06:54:03;10.20;;;3.00;;
36359;SDS011;22388;52.432;20.662;2023-05-01T06:57:28;7.72;;;2.92;;
36359;SDS011;22388;52.432;20.662;2023-05-01T07:00:52;9.23;;;2.90;;
36359;SDS011;22388;52.432;20.662;2023-05-01T07:04:17;7.70;;;2.70;;
36359;SDS011;22388;52.432;20.662;2023-05-01T07:07:42;8.93;;;2.95;;
36359;SDS011;22388;52.432;20.662;2023-05-01T07:11:06;8.40;;;3.03;;
36359;SDS011;22388;52.432;20.662;2023-05-01T07:14:30;8.00;;;2.53;;
36359;SDS011;22388;52.432;20.662;2023-05-01T07:17:54;12.00;;;3.33;;
36359;SDS011;22388;52.432;20.662;2023-05-01T07:21:18;9.82;;;3.58;;
36359;SDS011;22388;52.432;20.662;2023-05-01T07:24:43;7.47;;;2.60;;
36359;SDS011;22388;52.432;20.662;2023-05-01T07:28:09;7.35;;;2.90;;
36359;SDS011;22388;52.432;20.662;2023-05-01T07:31:33;13.95;;;3.90;;
36359;SDS011;22388;52.432;20.662;2023-05-01T07:34:57;8.98;;;3.53;;
36359;SDS011;22388;52.432;20.662;2023-05-01T07:38:22;8.52;;;2.97;;
36359;SDS011;22388;52.432;20.662;2023-05-01T07:41:46;9.88;;;2.92;;
36359;SDS011;22388;52.432;20.662;2023-05-01T07:45:10;13.13;;;3.78;;
36359;SDS011;22388;52.432;20.662;2023-05-01T07:48:34;12.43;;;3.47;;
36359;SDS011;22388;52.432;20.662;2023-05-01T07:52:02;10.70;;;3.40;;
36359;SDS011;22388;52.432;20.662;2023-05-01T07:55:26;9.82;;;3.53;;
36359;SDS011;22388;52.432;20.662;2023-05-01T07:58:51;9.50;;;3.60;;
36359;SDS011;22388;52.432;20.662;2023-05-01T08:02:21;8.77;;;3.50;;
36359;SDS011;22388;52.432;20.662;2023-05-01T08:05:45;9.10;;;3.80;;
36359;SDS011;22388;52.432;20.662;2023-05-01T08:09:10;10.25;;;3.05;;
36359;SDS011;22388;52.432;20.662;2023-05-01T08:12:34;8.43;;;3.30;;
36359;SDS011;22388;52.432;20.662;2023-05-01T08:16:01;8.10;;;3.65;;
36359;SDS011;22388;52.432;20.662;2023-05-01T08:19:26;7.05;;;3.08;;
36359;SDS011;22388;52.432;20.662;2023-05-01T08:22:57;9.65;;;3.28;;
36359;SDS011;22388;52.432;20.662;2023-05-01T08:26:22;9.68;;;3.20;;
36359;SDS011;22388;52.432;20.662;2023-05-01T08:29:46;12.20;;;3.17;;
36359;SDS011;22388;52.432;20.662;2023-05-01T08:33:13;10.98;;;3.10;;
36359;SDS011;22388;52.432;20.662;2023-05-01T08:36:37;9.77;;;3.13;;
36359;SDS011;22388;52.432;20.662;2023-05-01T08:40:01;8.57;;;3.60;;
36359;SDS011;22388;52.432;20.662;2023-05-01T08:43:30;7.50;;;3.00;;
36359;SDS011;22388;52.432;20.662;2023-05-01T08:47:06;9.95;;;3.00;;
36359;SDS011;22388;52.432;20.662;2023-05-01T08:50:32;8.27;;;2.97;;
36359;SDS011;22388;52.432;20.662;2023-05-01T08:53:57;9.57;;;2.67;;
36359;SDS011;22388;52.432;20.662;2023-05-01T08:57:22;6.93;;;2.78;;
36359;SDS011;22388;52.432;20.662;2023-05-01T09:00:48;7.53;;;3.08;;
36359;SDS011;22388;52.432;20.662;2023-05-01T09:04:12;9.82;;;2.65;;
36359;SDS011;22388;52.432;20.662;2023-05-01T09:07:37;7.70;;;2.70;;
36359;SDS011;22388;52.432;20.662;2023-05-01T09:11:02;10.70;;;2.88;;
36359;SDS011;22388;52.432;20.662;2023-05-01T09:14:29;7.13;;;2.50;;
36359;SDS011;22388;52.432;20.662;2023-05-01T09:17:56;9.77;;;3.45;;
36359;SDS011;22388;52.432;20.662;2023-05-01T09:21:23;11.55;;;2.83;;
36359;SDS011;22388;52.432;20.662;2023-05-01T09:24:47;6.18;;;2.40;;
36359;SDS011;22388;52.432;20.662;2023-05-01T09:28:11;12.43;;;3.33;;
36359;SDS011;22388;52.432;20.662;2023-05-01T09:31:35;10.07;;;2.80;;
36359;SDS011;22388;52.432;20.662;2023-05-01T09:41:56;6.20;;;2.80;;
36359;SDS011;22388;52.432;20.662;2023-05-01T09:45:21;6.15;;;2.33;;
36359;SDS011;22388;52.432;20.662;2023-05-01T09:48:52;5.93;;;2.25;;
36359;SDS011;22388;52.432;20.662;2023-05-01T09:52:17;8.55;;;2.42;;
36359;SDS011;22388;52.432;20.662;2023-05-01T09:55:42;6.32;;;2.42;;
36359;SDS011;22388;52.432;20.662;2023-05-01T09:59:23;9.70;;;2.72;;
36359;SDS011;22388;52.432;20.662;2023-05-01T10:02:47;6.68;;;2.70;;
36359;SDS011;22388;52.432;20.662;2023-05-01T10:06:26;9.60;;;3.20;;
36359;SDS011;22388;52.432;20.662;2023-05-01T10:09:50;9.70;;;3.17;;
36359;SDS011;22388;52.432;20.662;2023-05-01T10:13:24;7.57;;;2.47;;
36359;SDS011;22388;52.432;20.662;2023-05-01T10:16:49;6.38;;;2.20;;
36359;SDS011;22388;52.432;20.662;2023-05-01T10:20:14;9.15;;;2.50;;
36359;SDS011;22388;52.432;20.662;2023-05-01T10:23:40;11.10;;;2.28;;
36359;SDS011;22388;52.432;20.662;2023-05-01T10:27:05;7.15;;;2.60;;
36359;SDS011;22388;52.432;20.662;2023-05-01T10:30:29;7.80;;;2.88;;
36359;SDS011;22388;52.432;20.662;2023-05-01T10:33:56;7.32;;;2.20;;
36359;SDS011;22388;52.432;20.662;2023-05-01T10:37:23;5.28;;;2.00;;
36359;SDS011;22388;52.432;20.662;2023-05-01T10:40:51;7.65;;;2.63;;
36359;SDS011;22388;52.432;20.662;2023-05-01T10:44:26;8.27;;;2.17;;
36359;SDS011;22388;52.432;20.662;2023-05-01T10:47:54;7.43;;;2.60;;
36359;SDS011;22388;52.432;20.662;2023-05-01T10:51:22;5.75;;;2.20;;
36359;SDS011;22388;52.432;20.662;2023-05-01T10:54:47;7.32;;;2.50;;
36359;SDS011;22388;52.432;20.662;2023-05-01T11:02:25;7.60;;;2.20;;
36359;SDS011;22388;52.432;20.662;2023-05-01T11:13:05;8.15;;;2.17;;
36359;SDS011;22388;52.432;20.662;2023-05-01T11:20:06;6.88;;;2.05;;
36359;SDS011;22388;52.432;20.662;2023-05-01T11:23:30;9.48;;;2.25;;
36359;SDS011;22388;52.432;20.662;2023-05-01T11:26:57;5.43;;;2.10;;
36359;SDS011;22388;52.432;20.662;2023-05-01T11:30:22;5.32;;;1.80;;
36359;SDS011;22388;52.432;20.662;2023-05-01T11:33:47;6.78;;;1.88;;
36359;SDS011;22388;52.432;20.662;2023-05-01T11:37:12;6.53;;;2.30;;
36359;SDS011;22388;52.432;20.662;2023-05-01T11:40:43;6.97;;;2.00;;
36359;SDS011;22388;52.432;20.662;2023-05-01T11:44:07;5.82;;;2.22;;
36359;SDS011;22388;52.432;20.662;2023-05-01T11:47:34;5.70;;;2.05;;
36359;SDS011;22388;52.432;20.662;2023-05-01T11:50:58;5.22;;;2.05;;
36359;SDS011;22388;52.432;20.662;2023-05-01T11:54:23;6.00;;;2.15;;
36359;SDS011;22388;52.432;20.662;2023-05-01T11:57:55;5.38;;;1.90;;
36359;SDS011;22388;52.432;20.662;2023-05-01T12:01:56;5.53;;;1.90;;
36359;SDS011;22388;52.432;20.662;2023-05-01T12:05:39;13.13;;;3.35;;
36359;SDS011;22388;52.432;20.662;2023-05-01T12:09:07;6.78;;;1.95;;
36359;SDS011;22388;52.432;20.662;2023-05-01T12:12:33;6.75;;;2.08;;
36359;SDS011;22388;52.432;20.662;2023-05-01T12:15:57;7.82;;;3.13;;
36359;SDS011;22388;52.432;20.662;2023-05-01T12:19:21;7.85;;;2.40;;
36359;SDS011;22388;52.432;20.662;2023-05-01T12:23:02;5.07;;;2.30;;
36359;SDS011;22388;52.432;20.662;2023-05-01T12:26:33;6.93;;;1.90;;
36359;SDS011;22388;52.432;20.662;2023-05-01T12:29:57;6.95;;;1.80;;
36359;SDS011;22388;52.432;20.662;2023-05-01T12:33:25;9.43;;;2.28;;
36359;SDS011;22388;52.432;20.662;2023-05-01T12:36:53;7.05;;;2.15;;
36359;SDS011;22388;52.432;20.662;2023-05-01T12:40:17;6.60;;;2.33;;
36359;SDS011;22388;52.432;20.662;2023-05-01T12:43:41;9.30;;;2.25;;
36359;SDS011;22388;52.432;20.662;2023-05-01T12:47:06;9.57;;;1.75;;
36359;SDS011;22388;52.432;20.662;2023-05-01T12:50:39;8.82;;;2.28;;
36359;SDS011;22388;52.432;20.662;2023-05-01T12:54:04;7.80;;;2.05;;
36359;SDS011;22388;52.432;20.662;2023-05-01T12:57:29;4.90;;;2.05;;
36359;SDS011;22388;52.432;20.662;2023-05-01T13:01:04;5.80;;;2.10;;
36359;SDS011;22388;52.432;20.662;2023-05-01T13:04:29;5.90;;;2.15;;
36359;SDS011;22388;52.432;20.662;2023-05-01T13:07:53;5.10;;;1.92;;
36359;SDS011;22388;52.432;20.662;2023-05-01T13:11:18;7.93;;;2.10;;
36359;SDS011;22388;52.432;20.662;2023-05-01T13:14:42;7.78;;;2.47;;
36359;SDS011;22388;52.432;20.662;2023-05-01T13:18:06;23.70;;;3.20;;
36359;SDS011;22388;52.432;20.662;2023-05-01T13:21:30;11.10;;;2.13;;
36359;SDS011;22388;52.432;20.662;2023-05-01T13:24:58;7.78;;;2.00;;
36359;SDS011;22388;52.432;20.662;2023-05-01T13:28:22;7.53;;;2.00;;
36359;SDS011;22388;52.432;20.662;2023-05-01T13:31:48;9.15;;;2.40;;
36359;SDS011;22388;52.432;20.662;2023-05-01T13:35:23;27.85;;;3.75;;
36359;SDS011;22388;52.432;20.662;2023-05-01T13:38:48;46.85;;;4.10;;
36359;SDS011;22388;52.432;20.662;2023-05-01T13:42:21;11.10;;;2.40;;
36359;SDS011;22388;52.432;20.662;2023-05-01T13:45:48;6.88;;;2.20;;
36359;SDS011;22388;52.432;20.662;2023-05-01T13:49:16;10.18;;;2.20;;
36359;SDS011;22388;52.432;20.662;2023-05-01T13:52:42;5.97;;;2.20;;
36359;SDS011;22388;52.432;20.662;2023-05-01T13:56:07;7.15;;;2.33;;
36359;SDS011;22388;52.432;20.662;2023-05-01T13:59:39;7.80;;;2.40;;
36359;SDS011;22388;52.432;20.662;2023-05-01T14:03:03;6.97;;;1.77;;
36359;SDS011;22388;52.432;20.662;2023-05-01T14:06:28;4.85;;;1.88;;
36359;SDS011;22388;52.432;20.662;2023-05-01T14:09:53;6.50;;;1.65;;
36359;SDS011;22388;52.432;20.662;2023-05-01T14:13:18;5.82;;;2.13;;
36359;SDS011;22388;52.432;20.662;2023-05-01T14:16:45;4.57;;;2.00;;
36359;SDS011;22388;52.432;20.662;2023-05-01T14:20:10;5.20;;;2.00;;
36359;SDS011;22388;52.432;20.662;2023-05-01T14:23:34;6.00;;;2.00;;
36359;SDS011;22388;52.432;20.662;2023-05-01T14:27:01;22.67;;;2.65;;
36359;SDS011;22388;52.432;20.662;2023-05-01T14:30:29;7.28;;;2.03;;
36359;SDS011;22388;52.432;20.662;2023-05-01T14:34:01;5.38;;;2.33;;
36359;SDS011;22388;52.432;20.662;2023-05-01T14:37:30;6.75;;;2.15;;
36359;SDS011;22388;52.432;20.662;2023-05-01T14:41:02;6.05;;;2.33;;
36359;SDS011;22388;52.432;20.662;2023-05-01T14:44:27;5.95;;;2.13;;
36359;SDS011;22388;52.432;20.662;2023-05-01T14:47:51;5.88;;;2.70;;
36359;SDS011;22388;52.432;20.662;2023-05-01T14:51:17;7.97;;;2.35;;
36359;SDS011;22388;52.432;20.662;2023-05-01T14:54:44;7.03;;;2.20;;
36359;SDS011;22388;52.432;20.662;2023-05-01T14:58:08;10.02;;;2.78;;
36359;SDS011;22388;52.432;20.662;2023-05-01T15:01:32;10.88;;;2.20;;
36359;SDS011;22388;52.432;20.662;2023-05-01T15:04:57;9.38;;;2.67;;
36359;SDS011;22388;52.432;20.662;2023-05-01T15:08:21;7.75;;;2.40;;
36359;SDS011;22388;52.432;20.662;2023-05-01T15:11:46;7.47;;;2.30;;
36359;SDS011;22388;52.432;20.662;2023-05-01T15:15:11;9.50;;;2.30;;
36359;SDS011;22388;52.432;20.662;2023-05-01T15:18:35;9.05;;;2.40;;
36359;SDS011;22388;52.432;20.662;2023-05-01T15:21:59;6.35;;;2.17;;
36359;SDS011;22388;52.432;20.662;2023-05-01T15:25:23;6.78;;;2.30;;
36359;SDS011;22388;52.432;20.662;2023-05-01T15:28:47;6.55;;;2.38;;
36359;SDS011;22388;52.432;20.662;2023-05-01T15:32:12;5.03;;;1.90;;
36359;SDS011;22388;52.432;20.662;2023-05-01T15:35:37;12.40;;;2.83;;
36359;SDS011;22388;52.432;20.662;2023-05-01T15:39:02;5.28;;;2.08;;
36359;SDS011;22388;52.432;20.662;2023-05-01T15:42:28;6.03;;;2.05;;
36359;SDS011;22388;52.432;20.662;2023-05-01T15:45:52;13.32;;;2.78;;
36359;SDS011;22388;52.432;20.662;2023-05-01T15:49:16;5.72;;;1.83;;
36359;SDS011;22388;52.432;20.662;2023-05-01T15:52:41;4.57;;;1.77;;
36359;SDS011;22388;52.432;20.662;2023-05-01T15:56:05;15.00;;;2.13;;
36359;SDS011;22388;52.432;20.662;2023-05-01T15:59:31;6.13;;;2.20;;
36359;SDS011;22388;52.432;20.662;2023-05-01T16:02:56;3.83;;;1.77;;
36359;SDS011;22388;52.432;20.662;2023-05-01T16:06:20;5.53;;;1.83;;
36359;SDS011;22388;52.432;20.662;2023-05-01T16:09:45;8.52;;;2.00;;
36359;SDS011;22388;52.432;20.662;2023-05-01T16:13:10;8.70;;;2.20;;
36359;SDS011;22388;52.432;20.662;2023-05-01T16:16:36;5.20;;;1.83;;
36359;SDS011;22388;52.432;20.662;2023-05-01T16:20:11;4.88;;;1.83;;
36359;SDS011;22388;52.432;20.662;2023-05-01T16:23:36;7.38;;;1.98;;
36359;SDS011;22388;52.432;20.662;2023-05-01T16:27:01;7.22;;;2.00;;
36359;SDS011;22388;52.432;20.662;2023-05-01T16:30:25;10.65;;;2.22;;
36359;SDS011;22388;52.432;20.662;2023-05-01T16:33:49;11.02;;;2.28;;
36359;SDS011;22388;52.432;20.662;2023-05-01T16:37:13;4.78;;;1.90;;
36359;SDS011;22388;52.432;20.662;2023-05-01T16:40:37;14.40;;;2.88;;
36359;SDS011;22388;52.432;20.662;2023-05-01T16:44:06;8.45;;;2.22;;
36359;SDS011;22388;52.432;20.662;2023-05-01T16:47:32;5.97;;;2.20;;
36359;SDS011;22388;52.432;20.662;2023-05-01T16:50:56;13.13;;;2.78;;
36359;SDS011;22388;52.432;20.662;2023-05-01T16:54:21;27.23;;;2.50;;
36359;SDS011;22388;52.432;20.662;2023-05-01T16:57:46;8.38;;;2.38;;
36359;SDS011;22388;52.432;20.662;2023-05-01T17:01:10;9.32;;;2.20;;
36359;SDS011;22388;52.432;20.662;2023-05-01T17:04:34;10.35;;;1.98;;
36359;SDS011;22388;52.432;20.662;2023-05-01T17:07:58;7.32;;;2.13;;
36359;SDS011;22388;52.432;20.662;2023-05-01T17:11:22;11.63;;;2.28;;
36359;SDS011;22388;52.432;20.662;2023-05-01T17:14:47;4.07;;;1.90;;
36359;SDS011;22388;52.432;20.662;2023-05-01T17:18:12;4.38;;;1.98;;
36359;SDS011;22388;52.432;20.662;2023-05-01T17:21:37;5.80;;;2.20;;
36359;SDS011;22388;52.432;20.662;2023-05-01T17:25:01;7.63;;;2.13;;
36359;SDS011;22388;52.432;20.662;2023-05-01T17:28:25;6.57;;;2.20;;
36359;SDS011;22388;52.432;20.662;2023-05-01T17:31:51;6.95;;;2.30;;
36359;SDS011;22388;52.432;20.662;2023-05-01T17:35:15;8.65;;;2.30;;
36359;SDS011;22388;52.432;20.662;2023-05-01T17:38:39;4.10;;;2.08;;
36359;SDS011;22388;52.432;20.662;2023-05-01T17:42:04;6.95;;;2.15;;
36359;SDS011;22388;52.432;20.662;2023-05-01T17:45:28;7.80;;;2.22;;
36359;SDS011;22388;52.432;20.662;2023-05-01T17:48:52;8.30;;;2.22;;
36359;SDS011;22388;52.432;20.662;2023-05-01T17:52:16;9.30;;;2.33;;
36359;SDS011;22388;52.432;20.662;2023-05-01T17:55:40;6.03;;;2.25;;
36359;SDS011;22388;52.432;20.662;2023-05-01T17:59:04;7.68;;;2.33;;
36359;SDS011;22388;52.432;20.662;2023-05-01T18:02:29;11.93;;;2.47;;
36359;SDS011;22388;52.432;20.662;2023-05-01T18:05:56;14.93;;;2.75;;
36359;SDS011;22388;52.432;20.662;2023-05-01T18:09:20;7.78;;;2.75;;
36359;SDS011;22388;52.432;20.662;2023-05-01T18:12:44;18.75;;;2.80;;
36359;SDS011;22388;52.432;20.662;2023-05-01T18:16:12;10.60;;;2.47;;
36359;SDS011;22388;52.432;20.662;2023-05-01T18:19:36;24.45;;;2.85;;
36359;SDS011;22388;52.432;20.662;2023-05-01T18:23:00;19.13;;;2.60;;
36359;SDS011;22388;52.432;20.662;2023-05-01T18:26:26;11.00;;;2.55;;
36359;SDS011;22388;52.432;20.662;2023-05-01T18:29:51;14.30;;;3.20;;
36359;SDS011;22388;52.432;20.662;2023-05-01T18:33:16;11.65;;;3.53;;
36359;SDS011;22388;52.432;20.662;2023-05-01T18:36:40;10.48;;;3.30;;
36359;SDS011;22388;52.432;20.662;2023-05-01T18:40:06;10.23;;;3.03;;
36359;SDS011;22388;52.432;20.662;2023-05-01T18:43:31;7.13;;;2.92;;
36359;SDS011;22388;52.432;20.662;2023-05-01T18:46:55;8.85;;;3.30;;
36359;SDS011;22388;52.432;20.662;2023-05-01T18:50:19;9.93;;;3.03;;
36359;SDS011;22388;52.432;20.662;2023-05-01T18:53:43;11.60;;;3.20;;
36359;SDS011;22388;52.432;20.662;2023-05-01T18:57:07;9.43;;;2.78;;
36359;SDS011;22388;52.432;20.662;2023-05-01T19:00:31;8.65;;;2.65;;
36359;SDS011;22388;52.432;20.662;2023-05-01T19:03:55;8.05;;;3.10;;
36359;SDS011;22388;52.432;20.662;2023-05-01T19:07:19;8.02;;;3.10;;
36359;SDS011;22388;52.432;20.662;2023-05-01T19:10:43;10.75;;;3.55;;
36359;SDS011;22388;52.432;20.662;2023-05-01T19:14:07;7.90;;;3.33;;
36359;SDS011;22388;52.432;20.662;2023-05-01T19:17:32;13.32;;;3.85;;
36359;SDS011;22388;52.432;20.662;2023-05-01T19:20:57;12.75;;;3.78;;
36359;SDS011;22388;52.432;20.662;2023-05-01T19:24:21;9.10;;;3.70;;
36359;SDS011;22388;52.432;20.662;2023-05-01T19:27:46;14.48;;;4.00;;
36359;SDS011;22388;52.432;20.662;2023-05-01T19:31:10;13.57;;;3.70;;
36359;SDS011;22388;52.432;20.662;2023-05-01T19:34:34;12.70;;;4.82;;
36359;SDS011;22388;52.432;20.662;2023-05-01T19:37:59;12.00;;;4.47;;
36359;SDS011;22388;52.432;20.662;2023-05-01T19:41:23;11.38;;;4.50;;
36359;SDS011;22388;52.432;20.662;2023-05-01T19:44:47;10.32;;;4.50;;
36359;SDS011;22388;52.432;20.662;2023-05-01T19:48:11;11.43;;;4.50;;
36359;SDS011;22388;52.432;20.662;2023-05-01T19:51:36;10.75;;;4.57;;
36359;SDS011;22388;52.432;20.662;2023-05-01T19:55:01;11.30;;;4.38;;
36359;SDS011;22388;52.432;20.662;2023-05-01T19:58:26;10.32;;;3.97;;
36359;SDS011;22388;52.432;20.662;2023-05-01T20:01:50;10.65;;;4.07;;
36359;SDS011;22388;52.432;20.662;2023-05-01T20:05:15;9.15;;;3.70;;
36359;SDS011;22388;52.432;20.662;2023-05-01T20:08:42;9.23;;;4.00;;
36359;SDS011;22388;52.432;20.662;2023-05-01T20:12:06;10.50;;;4.38;;
36359;SDS011;22388;52.432;20.662;2023-05-01T20:15:35;10.73;;;4.10;;
36359;SDS011;22388;52.432;20.662;2023-05-01T20:19:00;9.65;;;4.43;;
36359;SDS011;22388;52.432;20.662;2023-05-01T20:22:24;9.50;;;3.90;;
36359;SDS011;22388;52.432;20.662;2023-05-01T20:25:48;9.90;;;4.28;;
36359;SDS011;22388;52.432;20.662;2023-05-01T20:29:14;14.65;;;4.13;;
36359;SDS011;22388;52.432;20.662;2023-05-01T20:32:38;12.50;;;4.40;;
36359;SDS011;22388;52.432;20.662;2023-05-01T20:36:03;13.25;;;4.25;;
36359;SDS011;22388;52.432;20.662;2023-05-01T20:39:28;12.23;;;4.55;;
36359;SDS011;22388;52.432;20.662;2023-05-01T20:42:55;10.85;;;4.55;;
36359;SDS011;22388;52.432;20.662;2023-05-01T20:46:20;12.57;;;4.57;;
36359;SDS011;22388;52.432;20.662;2023-05-01T20:49:44;11.55;;;4.03;;
36359;SDS011;22388;52.432;20.662;2023-05-01T20:53:09;9.25;;;4.10;;
36359;SDS011;22388;52.432;20.662;2023-05-01T20:56:34;11.38;;;4.50;;